sensor_id;sensor_type;location;lat;lon;timestamp;pressure;altitude;pressure_sealevel;temperature;humidity
80397;BME280;69721;55.894;-3.052;2023-05-20T00:01:33;102480.27;;;17.30;40.15
80397;BME280;69721;55.894;-3.052;2023-05-20T00:03:59;102483.41;;;17.23;40.52
80397;BME280;69721;55.894;-3.052;2023-05-20T00:06:24;102492.50;;;17.20;40.08
80397;BME280;69721;55.894;-3.052;2023-05-20T00:08:49;102499.04;;;17.06;40.47
80397;BME280;69721;55.894;-3.052;2023-05-20T00:11:15;102506.38;;;17.00;40.63
80397;BME280;69721;55.894;-3.052;2023-05-20T00:13:40;102508.10;;;17.31;40.28
80397;BME280;69721;55.894;-3.052;2023-05-20T00:16:05;102505.07;;;17.03;40.27
80397;BME280;69721;55.894;-3.052;2023-05-20T00:18:32;102499.15;;;17.25;40.15
80397;BME280;69721;55.894;-3.052;2023-05-20T00:20:58;102495.58;;;17.04;40.23
80397;BME280;69721;55.894;-3.052;2023-05-20T00:23:24;102499.25;;;16.98;40.56
80397;BME280;69721;55.894;-3.052;2023-05-20T00:25:49;102506.67;;;16.97;40.22
80397;BME280;69721;55.894;-3.052;2023-05-20T00:28:14;102506.57;;;16.71;40.78
80397;BME280;69721;55.894;-3.052;2023-05-20T00:30:39;102499.14;;;17.03;40.56
80397;BME280;69721;55.894;-3.052;2023-05-20T00:33:05;102501.06;;;16.62;40.71
80397;BME280;69721;55.894;-3.052;2023-05-20T00:35:30;102502.64;;;17.43;40.32
80397;BME280;69721;55.894;-3.052;2023-05-20T00:37:55;102506.17;;;16.96;40.61
80397;BME280;69721;55.894;-3.052;2023-05-20T00:40:21;102505.22;;;16.12;42.01
80397;BME280;69721;55.894;-3.052;2023-05-20T00:42:46;102500.24;;;16.19;42.43
80397;BME280;69721;55.894;-3.052;2023-05-20T00:45:12;102495.16;;;16.12;42.30
80397;BME280;69721;55.894;-3.052;2023-05-20T00:47:37;102492.24;;;17.01;41.23
80397;BME280;69721;55.894;-3.052;2023-05-20T00:50:03;102491.52;;;16.60;41.53
80397;BME280;69721;55.894;-3.052;2023-05-20T00:52:30;102490.27;;;16.46;41.41
80397;BME280;69721;55.894;-3.052;2023-05-20T00:54:53;102488.75;;;16.50;42.01
80397;BME280;69721;55.894;-3.052;2023-05-20T00:57:19;102485.46;;;16.13;42.12
80397;BME280;69721;55.894;-3.052;2023-05-20T00:59:44;102484.48;;;16.21;42.28
80397;BME280;69721;55.894;-3.052;2023-05-20T01:02:09;102485.45;;;16.37;41.73
80397;BME280;69721;55.894;-3.052;2023-05-20T01:04:35;102476.67;;;16.37;41.64
80397;BME280;69721;55.894;-3.052;2023-05-20T01:07:03;102472.96;;;16.46;41.39
80397;BME280;69721;55.894;-3.052;2023-05-20T01:09:26;102469.38;;;16.27;41.67
80397;BME280;69721;55.894;-3.052;2023-05-20T01:11:55;102458.52;;;16.41;41.77
80397;BME280;69721;55.894;-3.052;2023-05-20T01:14:17;102453.46;;;16.40;41.56
80397;BME280;69721;55.894;-3.052;2023-05-20T01:16:42;102453.20;;;16.23;41.70
80397;BME280;69721;55.894;-3.052;2023-05-20T01:19:14;102454.49;;;15.82;42.74
80397;BME280;69721;55.894;-3.052;2023-05-20T01:21:33;102457.23;;;16.07;42.45
80397;BME280;69721;55.894;-3.052;2023-05-20T01:23:58;102454.95;;;15.70;43.11
80397;BME280;69721;55.894;-3.052;2023-05-20T01:26:24;102453.36;;;16.29;42.78
80397;BME280;69721;55.894;-3.052;2023-05-20T01:28:49;102457.58;;;16.20;42.35
80397;BME280;69721;55.894;-3.052;2023-05-20T01:31:19;102456.21;;;16.19;42.34
80397;BME280;69721;55.894;-3.052;2023-05-20T01:33:41;102454.25;;;15.61;43.30
80397;BME280;69721;55.894;-3.052;2023-05-20T01:36:06;102452.71;;;15.96;43.22
80397;BME280;69721;55.894;-3.052;2023-05-20T01:38:32;102453.12;;;15.78;42.94
80397;BME280;69721;55.894;-3.052;2023-05-20T01:40:57;102458.74;;;15.43;43.62
80397;BME280;69721;55.894;-3.052;2023-05-20T01:43:24;102459.14;;;15.02;44.24
80397;BME280;69721;55.894;-3.052;2023-05-20T01:45:48;102460.56;;;15.36;43.72
80397;BME280;69721;55.894;-3.052;2023-05-20T01:48:13;102463.05;;;15.68;43.10
80397;BME280;69721;55.894;-3.052;2023-05-20T01:50:39;102468.60;;;15.45;43.48
80397;BME280;69721;55.894;-3.052;2023-05-20T01:53:05;102465.32;;;15.85;43.50
80397;BME280;69721;55.894;-3.052;2023-05-20T01:55:30;102461.59;;;15.34;43.56
80397;BME280;69721;55.894;-3.052;2023-05-20T01:57:56;102457.92;;;15.93;43.17
80397;BME280;69721;55.894;-3.052;2023-05-20T02:00:22;102458.91;;;15.99;42.67
80397;BME280;69721;55.894;-3.052;2023-05-20T02:02:47;102458.63;;;15.83;42.41
80397;BME280;69721;55.894;-3.052;2023-05-20T02:05:12;102454.66;;;15.87;42.11
80397;BME280;69721;55.894;-3.052;2023-05-20T02:07:37;102454.67;;;15.77;42.09
80397;BME280;69721;55.894;-3.052;2023-05-20T02:10:03;102460.25;;;16.23;41.37
80397;BME280;69721;55.894;-3.052;2023-05-20T02:12:28;102459.00;;;15.63;42.13
80397;BME280;69721;55.894;-3.052;2023-05-20T02:14:53;102455.89;;;15.63;42.21
80397;BME280;69721;55.894;-3.052;2023-05-20T02:17:19;102454.24;;;16.26;41.39
80397;BME280;69721;55.894;-3.052;2023-05-20T02:19:44;102457.57;;;16.38;40.77
80397;BME280;69721;55.894;-3.052;2023-05-20T02:22:10;102457.95;;;16.72;40.54
80397;BME280;69721;55.894;-3.052;2023-05-20T02:24:35;102453.94;;;16.66;40.43
80397;BME280;69721;55.894;-3.052;2023-05-20T02:27:00;102450.43;;;15.95;41.60
80397;BME280;69721;55.894;-3.052;2023-05-20T02:29:26;102454.62;;;16.19;40.90
80397;BME280;69721;55.894;-3.052;2023-05-20T02:31:51;102455.86;;;16.45;40.85
80397;BME280;69721;55.894;-3.052;2023-05-20T02:34:17;102453.23;;;16.27;41.18
80397;BME280;69721;55.894;-3.052;2023-05-20T02:36:42;102450.75;;;16.02;41.47
80397;BME280;69721;55.894;-3.052;2023-05-20T02:39:07;102445.34;;;16.76;40.44
80397;BME280;69721;55.894;-3.052;2023-05-20T02:41:33;102441.38;;;16.44;40.56
80397;BME280;69721;55.894;-3.052;2023-05-20T02:43:59;102440.45;;;16.62;40.98
80397;BME280;69721;55.894;-3.052;2023-05-20T02:46:24;102441.93;;;16.04;41.45
80397;BME280;69721;55.894;-3.052;2023-05-20T02:48:49;102443.06;;;16.40;41.17
80397;BME280;69721;55.894;-3.052;2023-05-20T02:51:14;102443.39;;;16.26;40.87
80397;BME280;69721;55.894;-3.052;2023-05-20T02:53:40;102441.98;;;16.18;41.03
80397;BME280;69721;55.894;-3.052;2023-05-20T02:56:05;102439.75;;;16.10;40.83
80397;BME280;69721;55.894;-3.052;2023-05-20T02:58:30;102434.32;;;16.13;41.09
80397;BME280;69721;55.894;-3.052;2023-05-20T03:00:55;102430.83;;;15.72;41.79
80397;BME280;69721;55.894;-3.052;2023-05-20T03:03:21;102432.29;;;16.05;41.73
80397;BME280;69721;55.894;-3.052;2023-05-20T03:05:46;102437.09;;;16.11;41.07
80397;BME280;69721;55.894;-3.052;2023-05-20T03:08:12;102433.74;;;16.21;41.06
80397;BME280;69721;55.894;-3.052;2023-05-20T03:10:38;102429.79;;;16.61;40.80
80397;BME280;69721;55.894;-3.052;2023-05-20T03:13:03;102430.20;;;15.93;41.69
80397;BME280;69721;55.894;-3.052;2023-05-20T03:15:28;102431.48;;;14.93;43.02
80397;BME280;69721;55.894;-3.052;2023-05-20T03:17:53;102431.77;;;15.21;43.52
80397;BME280;69721;55.894;-3.052;2023-05-20T03:20:19;102430.13;;;15.63;42.55
80397;BME280;69721;55.894;-3.052;2023-05-20T03:22:44;102431.98;;;15.42;42.54
80397;BME280;69721;55.894;-3.052;2023-05-20T03:25:09;102436.76;;;15.49;42.22
80397;BME280;69721;55.894;-3.052;2023-05-20T03:27:34;102436.76;;;15.62;42.17
80397;BME280;69721;55.894;-3.052;2023-05-20T03:29:59;102434.17;;;15.82;41.65
80397;BME280;69721;55.894;-3.052;2023-05-20T03:32:25;102430.87;;;16.03;41.14
80397;BME280;69721;55.894;-3.052;2023-05-20T03:34:50;102430.01;;;15.77;41.70
80397;BME280;69721;55.894;-3.052;2023-05-20T03:37:15;102426.85;;;15.84;41.90
80397;BME280;69721;55.894;-3.052;2023-05-20T03:39:41;102423.50;;;15.68;41.72
80397;BME280;69721;55.894;-3.052;2023-05-20T03:42:06;102424.77;;;15.58;41.89
80397;BME280;69721;55.894;-3.052;2023-05-20T03:44:32;102428.92;;;15.06;42.95
80397;BME280;69721;55.894;-3.052;2023-05-20T03:46:57;102426.39;;;15.39;42.52
80397;BME280;69721;55.894;-3.052;2023-05-20T03:49:22;102424.04;;;15.67;42.29
80397;BME280;69721;55.894;-3.052;2023-05-20T03:51:48;102426.16;;;15.30;42.13
80397;BME280;69721;55.894;-3.052;2023-05-20T03:54:13;102425.07;;;15.52;42.08
80397;BME280;69721;55.894;-3.052;2023-05-20T03:56:38;102420.87;;;15.85;41.98
80397;BME280;69721;55.894;-3.052;2023-05-20T03:59:03;102421.13;;;15.07;42.58
80397;BME280;69721;55.894;-3.052;2023-05-20T04:01:29;102420.00;;;15.51;42.52
80397;BME280;69721;55.894;-3.052;2023-05-20T04:03:54;102418.27;;;15.09;42.57
80397;BME280;69721;55.894;-3.052;2023-05-20T04:06:20;102422.11;;;15.18;42.10
80397;BME280;69721;55.894;-3.052;2023-05-20T04:08:45;102421.44;;;15.20;41.94
80397;BME280;69721;55.894;-3.052;2023-05-20T04:11:11;102409.85;;;15.43;42.20
80397;BME280;69721;55.894;-3.052;2023-05-20T04:13:36;102403.26;;;15.41;42.17
80397;BME280;69721;55.894;-3.052;2023-05-20T04:16:02;102403.50;;;15.12;42.10
80397;BME280;69721;55.894;-3.052;2023-05-20T04:18:27;102404.74;;;15.31;42.09
80397;BME280;69721;55.894;-3.052;2023-05-20T04:20:54;102401.60;;;14.94;42.73
80397;BME280;69721;55.894;-3.052;2023-05-20T04:23:18;102403.57;;;14.40;43.32
80397;BME280;69721;55.894;-3.052;2023-05-20T04:25:44;102409.99;;;15.21;42.63
80397;BME280;69721;55.894;-3.052;2023-05-20T04:28:09;102407.02;;;15.36;41.80
80397;BME280;69721;55.894;-3.052;2023-05-20T04:30:35;102404.15;;;15.63;41.82
80397;BME280;69721;55.894;-3.052;2023-05-20T04:33:00;102402.56;;;15.45;41.64
80397;BME280;69721;55.894;-3.052;2023-05-20T04:35:26;102400.25;;;15.25;41.84
80397;BME280;69721;55.894;-3.052;2023-05-20T04:37:52;102394.03;;;15.47;41.25
80397;BME280;69721;55.894;-3.052;2023-05-20T04:40:18;102389.83;;;16.10;41.03
80397;BME280;69721;55.894;-3.052;2023-05-20T04:42:43;102389.23;;;16.13;40.67
80397;BME280;69721;55.894;-3.052;2023-05-20T04:45:09;102389.42;;;15.98;41.15
80397;BME280;69721;55.894;-3.052;2023-05-20T04:47:34;102391.33;;;15.52;41.80
80397;BME280;69721;55.894;-3.052;2023-05-20T04:49:59;102394.03;;;15.64;41.62
80397;BME280;69721;55.894;-3.052;2023-05-20T04:52:25;102393.61;;;15.39;41.65
80397;BME280;69721;55.894;-3.052;2023-05-20T04:54:50;102394.07;;;15.89;41.53
80397;BME280;69721;55.894;-3.052;2023-05-20T04:57:16;102390.11;;;15.93;41.16
80397;BME280;69721;55.894;-3.052;2023-05-20T04:59:41;102389.46;;;16.15;41.20
80397;BME280;69721;55.894;-3.052;2023-05-20T05:02:06;102388.41;;;16.07;40.97
80397;BME280;69721;55.894;-3.052;2023-05-20T05:04:31;102389.62;;;16.33;40.55
80397;BME280;69721;55.894;-3.052;2023-05-20T05:06:57;102388.99;;;16.15;40.84
80397;BME280;69721;55.894;-3.052;2023-05-20T05:09:22;102390.90;;;16.21;40.64
80397;BME280;69721;55.894;-3.052;2023-05-20T05:11:47;102395.54;;;16.19;40.72
80397;BME280;69721;55.894;-3.052;2023-05-20T05:14:13;102398.91;;;16.28;40.38
80397;BME280;69721;55.894;-3.052;2023-05-20T05:16:38;102396.82;;;16.36;40.09
80397;BME280;69721;55.894;-3.052;2023-05-20T05:19:04;102397.33;;;16.25;40.65
80397;BME280;69721;55.894;-3.052;2023-05-20T05:21:29;102397.73;;;16.32;40.81
80397;BME280;69721;55.894;-3.052;2023-05-20T05:23:54;102397.81;;;15.78;41.32
80397;BME280;69721;55.894;-3.052;2023-05-20T05:26:20;102395.32;;;16.16;40.98
80397;BME280;69721;55.894;-3.052;2023-05-20T05:28:45;102393.43;;;16.78;40.39
80397;BME280;69721;55.894;-3.052;2023-05-20T05:31:10;102397.99;;;16.75;40.46
80397;BME280;69721;55.894;-3.052;2023-05-20T05:33:35;102403.14;;;16.55;40.70
80397;BME280;69721;55.894;-3.052;2023-05-20T05:36:01;102403.61;;;16.41;40.55
80397;BME280;69721;55.894;-3.052;2023-05-20T05:38:26;102402.83;;;16.72;40.38
80397;BME280;69721;55.894;-3.052;2023-05-20T05:40:52;102405.99;;;16.67;39.94
80397;BME280;69721;55.894;-3.052;2023-05-20T05:43:17;102409.65;;;16.62;39.90
80397;BME280;69721;55.894;-3.052;2023-05-20T05:45:42;102404.74;;;16.77;39.95
80397;BME280;69721;55.894;-3.052;2023-05-20T05:48:07;102409.18;;;16.60;40.21
80397;BME280;69721;55.894;-3.052;2023-05-20T05:50:33;102409.05;;;16.37;40.53
80397;BME280;69721;55.894;-3.052;2023-05-20T05:52:58;102403.70;;;16.40;40.38
80397;BME280;69721;55.894;-3.052;2023-05-20T05:55:23;102406.07;;;16.63;40.08
80397;BME280;69721;55.894;-3.052;2023-05-20T05:57:48;102406.46;;;16.59;40.20
80397;BME280;69721;55.894;-3.052;2023-05-20T06:00:14;102407.58;;;16.31;40.60
80397;BME280;69721;55.894;-3.052;2023-05-20T06:02:40;102401.48;;;16.85;40.43
80397;BME280;69721;55.894;-3.052;2023-05-20T06:05:06;102399.75;;;16.76;40.43
80397;BME280;69721;55.894;-3.052;2023-05-20T06:07:30;102405.80;;;17.35;39.77
80397;BME280;69721;55.894;-3.052;2023-05-20T06:09:55;102405.13;;;17.01;39.64
80397;BME280;69721;55.894;-3.052;2023-05-20T06:12:20;102402.61;;;17.13;39.17
80397;BME280;69721;55.894;-3.052;2023-05-20T06:14:47;102409.00;;;17.07;39.68
80397;BME280;69721;55.894;-3.052;2023-05-20T06:17:12;102412.01;;;17.00;39.38
80397;BME280;69721;55.894;-3.052;2023-05-20T06:19:37;102412.98;;;17.24;40.12
80397;BME280;69721;55.894;-3.052;2023-05-20T06:22:03;102411.42;;;16.50;40.29
80397;BME280;69721;55.894;-3.052;2023-05-20T06:24:28;102405.81;;;17.20;40.11
80397;BME280;69721;55.894;-3.052;2023-05-20T06:26:55;102405.49;;;17.11;40.19
80397;BME280;69721;55.894;-3.052;2023-05-20T06:29:20;102404.23;;;16.82;40.20
80397;BME280;69721;55.894;-3.052;2023-05-20T06:31:46;102398.65;;;17.02;40.35
80397;BME280;69721;55.894;-3.052;2023-05-20T06:34:11;102404.94;;;17.04;39.91
80397;BME280;69721;55.894;-3.052;2023-05-20T06:36:37;102402.20;;;17.13;40.47
80397;BME280;69721;55.894;-3.052;2023-05-20T06:39:02;102399.77;;;17.32;39.87
80397;BME280;69721;55.894;-3.052;2023-05-20T06:41:27;102398.54;;;17.21;39.53
80397;BME280;69721;55.894;-3.052;2023-05-20T06:43:52;102403.94;;;17.23;40.33
80397;BME280;69721;55.894;-3.052;2023-05-20T06:46:18;102401.29;;;17.31;39.53
80397;BME280;69721;55.894;-3.052;2023-05-20T06:48:44;102399.55;;;17.42;39.52
80397;BME280;69721;55.894;-3.052;2023-05-20T06:51:09;102402.10;;;18.23;38.53
80397;BME280;69721;55.894;-3.052;2023-05-20T06:53:35;102403.28;;;17.80;38.23
80397;BME280;69721;55.894;-3.052;2023-05-20T06:56:00;102406.52;;;18.06;37.94
80397;BME280;69721;55.894;-3.052;2023-05-20T06:58:25;102405.31;;;18.05;38.10
80397;BME280;69721;55.894;-3.052;2023-05-20T07:00:51;102406.45;;;17.74;39.09
80397;BME280;69721;55.894;-3.052;2023-05-20T07:03:16;102404.74;;;17.70;39.17
80397;BME280;69721;55.894;-3.052;2023-05-20T07:05:42;102401.77;;;17.84;38.99
80397;BME280;69721;55.894;-3.052;2023-05-20T07:08:07;102395.67;;;17.63;38.68
80397;BME280;69721;55.894;-3.052;2023-05-20T07:10:33;102394.39;;;17.54;39.12
80397;BME280;69721;55.894;-3.052;2023-05-20T07:12:58;102392.88;;;17.90;38.30
80397;BME280;69721;55.894;-3.052;2023-05-20T07:15:23;102391.40;;;18.39;38.02
80397;BME280;69721;55.894;-3.052;2023-05-20T07:17:49;102392.49;;;18.21;38.19
80397;BME280;69721;55.894;-3.052;2023-05-20T07:20:14;102394.41;;;18.51;38.08
80397;BME280;69721;55.894;-3.052;2023-05-20T07:22:39;102397.59;;;18.87;37.75
80397;BME280;69721;55.894;-3.052;2023-05-20T07:25:05;102397.41;;;19.19;36.70
80397;BME280;69721;55.894;-3.052;2023-05-20T07:27:30;102397.24;;;19.19;37.46
80397;BME280;69721;55.894;-3.052;2023-05-20T07:29:55;102394.88;;;18.70;37.63
80397;BME280;69721;55.894;-3.052;2023-05-20T07:32:21;102394.95;;;18.58;37.80
80397;BME280;69721;55.894;-3.052;2023-05-20T07:34:46;102395.27;;;18.28;37.83
80397;BME280;69721;55.894;-3.052;2023-05-20T07:37:11;102398.79;;;18.10;38.12
80397;BME280;69721;55.894;-3.052;2023-05-20T07:39:36;102390.62;;;18.77;38.23
80397;BME280;69721;55.894;-3.052;2023-05-20T07:42:02;102392.53;;;18.77;37.90
80397;BME280;69721;55.894;-3.052;2023-05-20T07:44:27;102390.97;;;18.61;37.93
80397;BME280;69721;55.894;-3.052;2023-05-20T07:46:54;102396.96;;;18.35;38.35
80397;BME280;69721;55.894;-3.052;2023-05-20T07:49:18;102394.07;;;18.49;37.94
80397;BME280;69721;55.894;-3.052;2023-05-20T07:51:44;102400.66;;;18.66;38.33
80397;BME280;69721;55.894;-3.052;2023-05-20T07:54:09;102403.87;;;17.88;39.00
80397;BME280;69721;55.894;-3.052;2023-05-20T07:56:34;102402.62;;;18.06;38.87
80397;BME280;69721;55.894;-3.052;2023-05-20T07:59:00;102401.40;;;18.46;38.14
80397;BME280;69721;55.894;-3.052;2023-05-20T08:01:25;102400.93;;;18.56;38.13
80397;BME280;69721;55.894;-3.052;2023-05-20T08:03:51;102401.34;;;19.09;37.55
80397;BME280;69721;55.894;-3.052;2023-05-20T08:06:16;102400.47;;;19.83;38.20
80397;BME280;69721;55.894;-3.052;2023-05-20T08:08:41;102396.73;;;19.75;36.24
80397;BME280;69721;55.894;-3.052;2023-05-20T08:11:06;102397.25;;;19.18;37.39
80397;BME280;69721;55.894;-3.052;2023-05-20T08:13:31;102393.37;;;19.47;37.81
80397;BME280;69721;55.894;-3.052;2023-05-20T08:15:56;102391.80;;;19.04;37.58
80397;BME280;69721;55.894;-3.052;2023-05-20T08:18:22;102388.62;;;19.10;37.25
80397;BME280;69721;55.894;-3.052;2023-05-20T08:20:47;102390.42;;;19.34;37.72
80397;BME280;69721;55.894;-3.052;2023-05-20T08:23:13;102390.54;;;19.95;37.56
80397;BME280;69721;55.894;-3.052;2023-05-20T08:25:38;102393.21;;;20.20;36.37
80397;BME280;69721;55.894;-3.052;2023-05-20T08:28:04;102395.80;;;20.21;36.25
80397;BME280;69721;55.894;-3.052;2023-05-20T08:30:28;102395.85;;;20.07;36.49
80397;BME280;69721;55.894;-3.052;2023-05-20T08:32:54;102396.99;;;20.19;35.57
80397;BME280;69721;55.894;-3.052;2023-05-20T08:35:19;102395.26;;;19.81;36.19
80397;BME280;69721;55.894;-3.052;2023-05-20T08:37:44;102393.87;;;20.45;36.14
80397;BME280;69721;55.894;-3.052;2023-05-20T08:40:11;102393.48;;;20.56;35.98
80397;BME280;69721;55.894;-3.052;2023-05-20T08:42:35;102389.90;;;20.70;35.62
80397;BME280;69721;55.894;-3.052;2023-05-20T08:45:01;102386.66;;;20.59;36.25
80397;BME280;69721;55.894;-3.052;2023-05-20T08:47:26;102391.70;;;21.01;35.68
80397;BME280;69721;55.894;-3.052;2023-05-20T08:49:52;102393.33;;;20.82;35.72
80397;BME280;69721;55.894;-3.052;2023-05-20T08:52:20;102391.83;;;21.24;34.84
80397;BME280;69721;55.894;-3.052;2023-05-20T08:54:44;102388.37;;;20.76;35.47
80397;BME280;69721;55.894;-3.052;2023-05-20T08:57:08;102386.39;;;21.05;35.37
80397;BME280;69721;55.894;-3.052;2023-05-20T08:59:34;102380.74;;;21.24;33.94
80397;BME280;69721;55.894;-3.052;2023-05-20T09:01:58;102384.94;;;21.38;34.07
80397;BME280;69721;55.894;-3.052;2023-05-20T09:04:24;102380.84;;;21.16;34.31
80397;BME280;69721;55.894;-3.052;2023-05-20T09:06:50;102377.09;;;20.34;34.85
80397;BME280;69721;55.894;-3.052;2023-05-20T09:09:14;102377.42;;;20.33;35.60
80397;BME280;69721;55.894;-3.052;2023-05-20T09:11:40;102373.54;;;20.81;34.26
80397;BME280;69721;55.894;-3.052;2023-05-20T09:14:05;102372.19;;;20.72;35.60
80397;BME280;69721;55.894;-3.052;2023-05-20T09:16:30;102370.82;;;21.46;35.29
80397;BME280;69721;55.894;-3.052;2023-05-20T09:18:55;102369.42;;;21.28;36.01
80397;BME280;69721;55.894;-3.052;2023-05-20T09:21:25;102370.53;;;20.99;35.98
80397;BME280;69721;55.894;-3.052;2023-05-20T09:23:46;102365.51;;;19.89;35.21
80397;BME280;69721;55.894;-3.052;2023-05-20T09:26:11;102365.52;;;21.41;35.41
80397;BME280;69721;55.894;-3.052;2023-05-20T09:28:36;102364.86;;;21.32;34.29
80397;BME280;69721;55.894;-3.052;2023-05-20T09:31:02;102366.16;;;20.47;34.70
80397;BME280;69721;55.894;-3.052;2023-05-20T09:33:28;102363.03;;;20.64;35.04
80397;BME280;69721;55.894;-3.052;2023-05-20T09:35:59;102363.77;;;21.53;34.81
80397;BME280;69721;55.894;-3.052;2023-05-20T09:38:18;102361.81;;;21.52;33.34
80397;BME280;69721;55.894;-3.052;2023-05-20T09:40:45;102359.79;;;21.56;33.68
80397;BME280;69721;55.894;-3.052;2023-05-20T09:43:09;102360.33;;;21.83;34.95
80397;BME280;69721;55.894;-3.052;2023-05-20T09:45:34;102357.83;;;21.98;33.84
80397;BME280;69721;55.894;-3.052;2023-05-20T09:48:01;102354.73;;;21.40;34.46
80397;BME280;69721;55.894;-3.052;2023-05-20T09:50:27;102350.34;;;22.53;33.84
80397;BME280;69721;55.894;-3.052;2023-05-20T09:52:53;102351.34;;;21.57;34.37
80397;BME280;69721;55.894;-3.052;2023-05-20T09:55:18;102347.31;;;22.61;32.52
80397;BME280;69721;55.894;-3.052;2023-05-20T09:57:41;102348.49;;;21.96;33.65
80397;BME280;69721;55.894;-3.052;2023-05-20T10:00:08;102343.54;;;22.75;32.86
80397;BME280;69721;55.894;-3.052;2023-05-20T10:02:33;102338.75;;;23.18;33.43
80397;BME280;69721;55.894;-3.052;2023-05-20T10:04:59;102342.16;;;21.79;32.74
80397;BME280;69721;55.894;-3.052;2023-05-20T10:07:38;102342.08;;;21.80;33.12
80397;BME280;69721;55.894;-3.052;2023-05-20T10:09:57;102333.38;;;22.39;32.81
80397;BME280;69721;55.894;-3.052;2023-05-20T10:12:20;102328.46;;;22.22;32.49
80397;BME280;69721;55.894;-3.052;2023-05-20T10:14:47;102328.24;;;22.06;33.06
80397;BME280;69721;55.894;-3.052;2023-05-20T10:17:09;102325.52;;;22.19;32.58
80397;BME280;69721;55.894;-3.052;2023-05-20T10:19:32;102324.60;;;22.66;33.67
80397;BME280;69721;55.894;-3.052;2023-05-20T10:21:57;102323.93;;;23.39;33.52
80397;BME280;69721;55.894;-3.052;2023-05-20T10:24:28;102329.59;;;20.52;33.43
80397;BME280;69721;55.894;-3.052;2023-05-20T10:26:53;102330.00;;;21.39;33.64
80397;BME280;69721;55.894;-3.052;2023-05-20T10:29:14;102327.45;;;19.92;35.55
80397;BME280;69721;55.894;-3.052;2023-05-20T10:31:43;102328.08;;;21.19;34.54
80397;BME280;69721;55.894;-3.052;2023-05-20T10:34:01;102324.22;;;22.42;32.94
80397;BME280;69721;55.894;-3.052;2023-05-20T10:36:28;102316.49;;;22.37;31.48
80397;BME280;69721;55.894;-3.052;2023-05-20T10:38:53;102312.70;;;23.27;31.29
80397;BME280;69721;55.894;-3.052;2023-05-20T10:41:20;102314.71;;;24.05;32.00
80397;BME280;69721;55.894;-3.052;2023-05-20T10:43:42;102312.21;;;23.08;31.49
80397;BME280;69721;55.894;-3.052;2023-05-20T10:46:16;102315.45;;;21.74;32.02
80397;BME280;69721;55.894;-3.052;2023-05-20T10:48:34;102311.92;;;21.67;32.81
80397;BME280;69721;55.894;-3.052;2023-05-20T10:51:01;102304.63;;;22.48;31.73
80397;BME280;69721;55.894;-3.052;2023-05-20T10:53:26;102307.35;;;19.99;35.01
80397;BME280;69721;55.894;-3.052;2023-05-20T10:55:52;102306.71;;;20.02;34.75
80397;BME280;69721;55.894;-3.052;2023-05-20T10:58:16;102301.94;;;20.52;35.45
80397;BME280;69721;55.894;-3.052;2023-05-20T11:00:42;102299.28;;;22.30;34.00
80397;BME280;69721;55.894;-3.052;2023-05-20T11:03:06;102303.30;;;20.61;33.40
80397;BME280;69721;55.894;-3.052;2023-05-20T11:05:32;102302.34;;;19.61;34.57
80397;BME280;69721;55.894;-3.052;2023-05-20T11:08:00;102294.54;;;22.03;32.54
80397;BME280;69721;55.894;-3.052;2023-05-20T11:10:22;102302.25;;;21.25;34.60
80397;BME280;69721;55.894;-3.052;2023-05-20T11:12:48;102298.55;;;19.60;37.19
80397;BME280;69721;55.894;-3.052;2023-05-20T11:15:13;102298.62;;;18.06;40.25
80397;BME280;69721;55.894;-3.052;2023-05-20T11:17:38;102306.30;;;17.43;41.45
80397;BME280;69721;55.894;-3.052;2023-05-20T11:20:04;102308.80;;;16.49;42.55
80397;BME280;69721;55.894;-3.052;2023-05-20T11:22:28;102302.82;;;17.63;41.64
80397;BME280;69721;55.894;-3.052;2023-05-20T11:24:54;102303.33;;;17.88;40.50
80397;BME280;69721;55.894;-3.052;2023-05-20T11:27:20;102301.55;;;18.61;39.84
80397;BME280;69721;55.894;-3.052;2023-05-20T11:29:44;102311.70;;;16.55;42.23
80397;BME280;69721;55.894;-3.052;2023-05-20T11:32:11;102315.91;;;15.09;45.34
80397;BME280;69721;55.894;-3.052;2023-05-20T11:34:36;102313.97;;;15.60;44.66
80397;BME280;69721;55.894;-3.052;2023-05-20T11:37:01;102314.10;;;17.27;40.90
80397;BME280;69721;55.894;-3.052;2023-05-20T11:39:28;102309.24;;;16.66;42.35
80397;BME280;69721;55.894;-3.052;2023-05-20T11:41:51;102304.76;;;18.13;40.05
80397;BME280;69721;55.894;-3.052;2023-05-20T11:44:19;102302.82;;;17.35;40.35
80397;BME280;69721;55.894;-3.052;2023-05-20T11:46:44;102306.40;;;16.89;41.23
80397;BME280;69721;55.894;-3.052;2023-05-20T11:49:08;102299.22;;;18.15;39.18
80397;BME280;69721;55.894;-3.052;2023-05-20T11:51:33;102299.53;;;17.67;39.68
80397;BME280;69721;55.894;-3.052;2023-05-20T11:53:59;102294.64;;;17.95;39.65
80397;BME280;69721;55.894;-3.052;2023-05-20T11:56:24;102292.00;;;17.83;38.87
80397;BME280;69721;55.894;-3.052;2023-05-20T11:58:50;102284.03;;;19.83;37.67
80397;BME280;69721;55.894;-3.052;2023-05-20T12:01:15;102281.78;;;20.63;35.71
80397;BME280;69721;55.894;-3.052;2023-05-20T12:03:40;102276.78;;;19.51;36.69
80397;BME280;69721;55.894;-3.052;2023-05-20T12:06:05;102277.42;;;19.67;36.54
80397;BME280;69721;55.894;-3.052;2023-05-20T12:08:30;102274.65;;;19.38;36.28
80397;BME280;69721;55.894;-3.052;2023-05-20T12:10:55;102276.76;;;18.84;38.63
80397;BME280;69721;55.894;-3.052;2023-05-20T12:13:21;102271.32;;;20.41;36.04
80397;BME280;69721;55.894;-3.052;2023-05-20T12:15:46;102262.84;;;21.26;35.55
80397;BME280;69721;55.894;-3.052;2023-05-20T12:18:11;102252.99;;;21.71;34.18
80397;BME280;69721;55.894;-3.052;2023-05-20T12:20:37;102248.92;;;21.68;34.25
80397;BME280;69721;55.894;-3.052;2023-05-20T12:23:02;102251.60;;;20.95;35.16
80397;BME280;69721;55.894;-3.052;2023-05-20T12:25:28;102246.76;;;21.83;34.33
80397;BME280;69721;55.894;-3.052;2023-05-20T12:27:54;102246.92;;;21.89;34.25
80397;BME280;69721;55.894;-3.052;2023-05-20T12:30:19;102250.06;;;21.30;34.53